CheckWX is a tool to help pilots better visualize weather data.  It is not intended as a substitute for an official pre-flight weather briefing.

12:03:58 UTC

KCVN METAR
Clovis Municipal Airport
Clovis, New Mexico, USA
Current

8 mins ago

KCVN 201156Z AUTO 21009KT 10SM CLR 24/13 A3016 RMK AO2 SLP161 T02440133 10267 20239 53006
Observed
Aug-20 @ 11:56 UTC
Wind
  • 210° at 9 KTS
Visibility
10 SM
Flight Rules
VFR
Cloud Levels
  • Clear skies
Temperature
24°C / 75°F
Dewpoint
13°C / 55°F
Humidity
50%
Altimeter
30.16" Hg
Pressure
1021.32 hPa
Previous

1 hour ago

KCVN 201056Z AUTO 21008KT 10SM CLR 24/13 A3015 RMK AO2 SLP155 T02440133
Observed
Aug-20 @ 10:56 UTC
Wind
  • 210° at 8 KTS
Visibility
10 SM
Flight Rules
VFR
Cloud Levels
  • Clear skies
Temperature
24°C / 75°F
Dewpoint
13°C / 55°F
Humidity
50%
Altimeter
30.15" Hg
Pressure
1021.02 hPa
Previous

2 hours ago

KCVN 200956Z AUTO 17010KT 10SM CLR 25/14 A3014 RMK AO2 SLP152 T02500139
Observed
Aug-20 @ 09:56 UTC
Wind
  • 170° at 10 KTS
Visibility
10 SM
Flight Rules
VFR
Cloud Levels
  • Clear skies
Temperature
25°C / 77°F
Dewpoint
14°C / 57°F
Humidity
51%
Altimeter
30.14" Hg
Pressure
1020.62 hPa